createdAt,value
2023-04-04T00:00:36.031Z,5.70
2023-04-04T00:03:03.521Z,5.70
2023-04-04T00:05:31.153Z,5.70
2023-04-04T00:07:58.589Z,5.70
2023-04-04T00:10:26.306Z,5.70
2023-04-04T00:12:53.593Z,5.60
2023-04-04T00:15:20.889Z,5.60
2023-04-04T00:17:48.149Z,5.60
2023-04-04T00:20:15.472Z,5.60
2023-04-04T00:22:43.329Z,5.60
2023-04-04T00:25:10.974Z,5.60
2023-04-04T00:27:38.247Z,5.60
2023-04-04T00:30:06.231Z,5.50
2023-04-04T00:32:33.510Z,5.50
2023-04-04T00:35:00.695Z,5.40
2023-04-04T00:37:28.102Z,5.50
2023-04-04T00:39:55.757Z,5.50
2023-04-04T00:42:23.501Z,5.50
2023-04-04T00:44:54.151Z,5.40
2023-04-04T00:47:22.662Z,5.40
2023-04-04T00:49:49.972Z,5.30
2023-04-04T00:52:17.263Z,5.30
2023-04-04T00:54:44.553Z,5.30
2023-04-04T00:57:12.428Z,5.20
2023-04-04T00:59:39.699Z,5.20
2023-04-04T01:02:07.050Z,5.20
2023-04-04T01:04:34.854Z,5.10
2023-04-04T01:07:02.267Z,5.10
2023-04-04T01:09:29.736Z,5.10
2023-04-04T01:11:57.344Z,5.10
2023-04-04T01:14:24.647Z,5.10
2023-04-04T01:16:52.473Z,5.10
2023-04-04T01:19:42.819Z,5.10
2023-04-04T01:22:11.516Z,5.10
2023-04-04T01:24:39.232Z,5.10
2023-04-04T01:27:06.577Z,5.10
2023-04-04T01:29:33.847Z,5.00
2023-04-04T01:32:04.878Z,5.00
2023-04-04T01:34:38.439Z,5.00
2023-04-04T01:37:24.077Z,5.00
2023-04-04T01:39:54.295Z,5.00
2023-04-04T01:42:22.870Z,5.00
2023-04-04T01:44:59.504Z,4.90
2023-04-04T01:47:26.856Z,4.90
2023-04-04T01:49:54.191Z,5.00
2023-04-04T01:52:21.678Z,4.90
2023-04-04T01:54:49.070Z,4.90
2023-04-04T01:57:16.522Z,4.90
2023-04-04T01:59:43.786Z,4.90
2023-04-04T02:02:11.393Z,4.80
2023-04-04T02:04:38.943Z,4.80
2023-04-04T02:07:06.856Z,4.80
2023-04-04T02:09:34.241Z,4.80
2023-04-04T02:12:01.923Z,4.80
2023-04-04T02:14:29.247Z,4.80
2023-04-04T02:16:56.578Z,4.80
2023-04-04T02:19:24.816Z,4.70
2023-04-04T02:21:52.101Z,4.70
2023-04-04T02:24:19.530Z,4.70
2023-04-04T02:26:46.838Z,4.70
2023-04-04T02:29:14.163Z,4.70
2023-04-04T02:31:41.435Z,4.60
2023-04-04T02:34:08.879Z,4.70
2023-04-04T02:36:36.807Z,4.60
2023-04-04T02:39:04.883Z,4.50
2023-04-04T02:41:32.341Z,4.50
2023-04-04T02:43:59.582Z,4.50
2023-04-04T02:46:26.949Z,4.50
2023-04-04T02:48:54.265Z,4.40
2023-04-04T02:51:21.530Z,4.40
2023-04-04T02:53:48.848Z,4.40
2023-04-04T02:56:16.315Z,4.40
2023-04-04T02:58:43.374Z,4.40
2023-04-04T03:01:10.701Z,4.40
2023-04-04T03:03:38.290Z,4.40
2023-04-04T03:06:05.702Z,4.30
2023-04-04T03:08:33.048Z,4.40
2023-04-04T03:11:00.373Z,4.30
2023-04-04T03:13:27.635Z,4.50
2023-04-04T03:16:03.303Z,4.30
2023-04-04T03:18:30.573Z,4.30
2023-04-04T03:20:57.962Z,4.30
2023-04-04T03:23:25.224Z,4.30
2023-04-04T03:25:52.539Z,4.30
2023-04-04T03:28:19.906Z,4.20
2023-04-04T03:30:47.567Z,4.20
2023-04-04T03:33:15.256Z,4.20
2023-04-04T03:35:42.628Z,4.20
2023-04-04T03:38:10.626Z,4.10
2023-04-04T03:40:37.998Z,4.20
2023-04-04T03:43:08.314Z,4.10
2023-04-04T03:45:35.938Z,4.10
2023-04-04T03:48:03.440Z,4.10
2023-04-04T03:50:31.326Z,4.10
2023-04-04T03:52:58.676Z,4.10
2023-04-04T03:55:26.434Z,4.10
2023-04-04T03:57:54.046Z,4.10
2023-04-04T04:00:21.369Z,4.10
2023-04-04T04:02:48.776Z,4.10
2023-04-04T04:05:16.145Z,4.10
2023-04-04T04:07:44.627Z,4.10
2023-04-04T04:10:14.335Z,4.10
2023-04-04T04:12:41.903Z,4.10
2023-04-04T04:15:09.360Z,4.10
2023-04-04T04:17:43.298Z,4.10
2023-04-04T04:20:10.821Z,4.00
2023-04-04T04:22:38.248Z,4.00
2023-04-04T04:25:05.688Z,4.00
2023-04-04T04:27:33.043Z,4.00
2023-04-04T04:30:00.458Z,4.00
2023-04-04T04:32:28.210Z,4.00
2023-04-04T04:34:55.320Z,3.90
2023-04-04T04:37:23.746Z,3.90
2023-04-04T04:39:52.167Z,3.80
2023-04-04T04:42:19.561Z,3.80
2023-04-04T04:44:46.949Z,3.90
2023-04-04T04:47:14.182Z,3.90
2023-04-04T04:49:43.524Z,3.90
2023-04-04T04:52:11.096Z,3.90
2023-04-04T04:58:32.689Z,3.90
2023-04-04T05:00:59.995Z,3.90
2023-04-04T05:03:27.841Z,3.80
2023-04-04T05:05:55.186Z,3.80
2023-04-04T05:08:22.731Z,3.80
2023-04-04T05:10:50.589Z,3.80
2023-04-04T05:13:18.570Z,3.80
2023-04-04T05:15:46.977Z,3.70
2023-04-04T05:18:14.430Z,3.60
2023-04-04T05:20:42.052Z,3.70
2023-04-04T05:23:09.518Z,3.60
2023-04-04T05:25:36.795Z,3.70
2023-04-04T05:28:04.086Z,3.70
2023-04-04T05:30:32.380Z,3.70
2023-04-04T05:32:59.695Z,3.70
2023-04-04T05:35:27.087Z,3.70
2023-04-04T05:37:54.535Z,3.80
2023-04-04T05:40:22.336Z,3.80
2023-04-04T05:42:59.328Z,3.90
2023-04-04T05:45:26.891Z,3.80
2023-04-04T05:47:55.327Z,3.80
2023-04-04T05:50:23.158Z,3.80
2023-04-04T05:52:53.298Z,3.80
2023-04-04T05:55:20.563Z,3.80
2023-04-04T05:57:48.823Z,3.80
2023-04-04T06:00:17.340Z,3.80
2023-04-04T06:02:45.028Z,3.80
2023-04-04T06:05:12.395Z,3.80
2023-04-04T06:07:39.760Z,3.80
2023-04-04T06:10:07.807Z,3.80
2023-04-04T06:12:35.097Z,3.80
2023-04-04T06:15:02.539Z,3.80
2023-04-04T06:17:29.963Z,3.90
2023-04-04T06:19:57.335Z,3.90
2023-04-04T06:22:24.614Z,3.90
2023-04-04T06:24:52.088Z,4.00
2023-04-04T06:27:19.474Z,4.00
2023-04-04T06:29:47.888Z,4.10
2023-04-04T06:32:15.794Z,4.00
2023-04-04T06:34:43.451Z,4.10
2023-04-04T06:37:10.928Z,4.10
2023-04-04T06:39:38.238Z,4.20
2023-04-04T06:42:06.148Z,4.20
2023-04-04T06:44:33.412Z,4.20
2023-04-04T06:47:00.751Z,4.20
2023-04-04T06:49:28.158Z,4.30
2023-04-04T06:51:55.473Z,4.30
2023-04-04T06:54:22.713Z,4.40
2023-04-04T06:56:50.088Z,4.50
2023-04-04T06:59:17.436Z,4.60
2023-04-04T07:01:44.989Z,4.50
2023-04-04T07:04:12.296Z,4.60
2023-04-04T07:06:39.647Z,4.60
2023-04-04T07:09:12.821Z,4.60
2023-04-04T07:11:46.103Z,4.70
2023-04-04T07:14:13.433Z,4.70
2023-04-04T07:16:40.751Z,4.70
2023-04-04T07:19:08.133Z,4.80
2023-04-04T07:21:35.572Z,4.80
2023-04-04T07:24:02.964Z,4.90
2023-04-04T07:26:30.289Z,4.90
2023-04-04T07:28:57.571Z,4.90
2023-04-04T07:31:24.694Z,4.90
2023-04-04T07:33:54.032Z,5.00
2023-04-04T07:36:21.662Z,5.10
2023-04-04T07:38:48.987Z,5.10
2023-04-04T07:41:16.681Z,5.20
2023-04-04T07:43:44.006Z,5.30
2023-04-04T07:46:11.827Z,5.30
2023-04-04T07:48:39.177Z,5.40
2023-04-04T07:51:06.884Z,5.50
2023-04-04T07:53:35.304Z,5.50
2023-04-04T07:56:08.683Z,5.60
2023-04-04T07:58:36.779Z,5.70
2023-04-04T08:01:04.195Z,5.80
2023-04-04T08:03:31.739Z,5.80
2023-04-04T08:05:59.226Z,5.90
2023-04-04T08:08:27.192Z,6.00
2023-04-04T08:10:54.496Z,6.00
2023-04-04T08:13:21.782Z,6.10
2023-04-04T08:15:49.079Z,6.20
2023-04-04T08:18:16.344Z,6.20
2023-04-04T08:20:44.093Z,6.30
2023-04-04T08:23:13.073Z,6.40
2023-04-04T08:25:40.601Z,6.50
2023-04-04T08:28:09.152Z,6.60
2023-04-04T08:30:36.554Z,6.90
2023-04-04T08:33:06.122Z,7.00
2023-04-04T08:35:33.751Z,7.10
2023-04-04T08:38:02.733Z,7.20
2023-04-04T08:40:32.691Z,7.30
2023-04-04T08:43:03.960Z,7.40
2023-04-04T08:45:32.046Z,7.40
2023-04-04T08:48:01.109Z,7.50
2023-04-04T08:50:29.220Z,7.50
2023-04-04T08:52:56.775Z,7.50
2023-04-04T08:55:24.598Z,7.60
2023-04-04T08:57:51.839Z,7.70
2023-04-04T09:00:24.576Z,7.80
2023-04-04T09:03:09.647Z,7.90
2023-04-04T09:05:37.132Z,8.00
2023-04-04T09:08:05.864Z,8.10
2023-04-04T09:10:33.533Z,8.10
2023-04-04T09:13:14.536Z,8.10
2023-04-04T09:15:47.121Z,8.20
2023-04-04T09:18:15.110Z,8.20
2023-04-04T09:20:43.196Z,8.20
2023-04-04T09:23:13.127Z,8.30
2023-04-04T09:26:03.266Z,8.30
2023-04-04T09:28:35.490Z,8.30
2023-04-04T09:31:05.538Z,8.40
2023-04-04T09:33:33.681Z,8.50
2023-04-04T09:36:12.700Z,8.60
2023-04-04T09:38:43.181Z,8.70
2023-04-04T09:41:11.145Z,8.70
2023-04-04T09:43:39.794Z,8.80
2023-04-04T09:46:08.019Z,8.80
2023-04-04T09:48:36.932Z,8.90
2023-04-04T09:51:05.675Z,8.90
2023-04-04T09:53:37.443Z,9.00
2023-04-04T09:56:06.015Z,9.10
2023-04-04T09:58:36.255Z,9.10
2023-04-04T10:01:04.808Z,9.10
2023-04-04T10:03:32.348Z,9.20
2023-04-04T10:06:07.003Z,9.30
2023-04-04T10:08:35.424Z,9.40
2023-04-04T10:11:11.501Z,9.40
2023-04-04T10:13:44.677Z,9.40
2023-04-04T10:16:12.488Z,9.60
2023-04-04T10:18:40.398Z,9.60
2023-04-04T10:23:41.308Z,9.70
2023-04-04T10:26:08.659Z,9.60
2023-04-04T10:28:36.968Z,9.70
2023-04-04T10:31:20.357Z,9.80
2023-04-04T10:33:56.002Z,9.90
2023-04-04T10:36:24.461Z,9.90
2023-04-04T10:38:59.833Z,10.00
2023-04-04T10:41:30.909Z,10.00
2023-04-04T10:44:01.012Z,9.90
2023-04-04T10:46:31.116Z,10.00
2023-04-04T10:49:00.260Z,10.10
2023-04-04T10:51:27.735Z,10.20
2023-04-04T10:53:55.123Z,10.10
2023-04-04T10:56:22.606Z,10.00
2023-04-04T10:58:49.987Z,10.00
2023-04-04T11:01:21.526Z,10.10
2023-04-04T11:04:08.753Z,10.10
2023-04-04T11:06:54.972Z,10.30
2023-04-04T11:09:40.712Z,10.50
2023-04-04T11:12:08.759Z,10.60
2023-04-04T11:14:36.678Z,10.80
2023-04-04T11:17:05.456Z,10.90
2023-04-04T11:19:33.366Z,10.80
2023-04-04T11:22:00.718Z,10.90
2023-04-04T11:24:28.182Z,11.10
2023-04-04T11:26:55.472Z,11.10
2023-04-04T11:29:42.943Z,11.20
2023-04-04T11:32:27.276Z,11.30
2023-04-04T11:34:56.665Z,11.40
2023-04-04T11:37:24.248Z,12.00
2023-04-04T11:39:59.096Z,12.30
2023-04-04T11:42:33.918Z,12.90
2023-04-04T11:45:02.952Z,13.40
2023-04-04T11:47:31.526Z,13.60
2023-04-04T11:50:00.770Z,14.00
2023-04-04T11:52:38.429Z,14.30
2023-04-04T11:55:16.215Z,13.90
2023-04-04T11:57:43.538Z,13.60
2023-04-04T12:00:12.274Z,13.60
2023-04-04T12:02:39.709Z,14.10
2023-04-04T12:05:07.841Z,14.50
2023-04-04T12:07:35.481Z,14.80
2023-04-04T12:10:03.270Z,14.90
2023-04-04T12:12:31.092Z,14.80
2023-04-04T12:15:10.259Z,15.00
2023-04-04T12:17:45.811Z,14.80
2023-04-04T12:20:15.813Z,14.50
2023-04-04T12:22:44.025Z,14.40
2023-04-04T12:25:11.394Z,14.90
2023-04-04T12:27:38.693Z,15.40
2023-04-04T12:30:10.868Z,15.30
2023-04-04T12:32:38.163Z,15.50
2023-04-04T12:35:06.466Z,15.70
2023-04-04T12:37:34.345Z,16.00
2023-04-04T12:40:01.829Z,15.80
2023-04-04T12:42:31.351Z,16.10
2023-04-04T12:44:58.757Z,16.20
2023-04-04T12:47:28.280Z,16.30
2023-04-04T12:49:55.955Z,15.90
2023-04-04T12:52:26.951Z,15.70
2023-04-04T12:57:41.774Z,16.30
2023-04-04T13:00:09.701Z,17.00
2023-04-04T13:02:37.945Z,17.00
2023-04-04T13:05:07.368Z,17.30
2023-04-04T13:07:42.822Z,17.40
2023-04-04T13:10:11.693Z,17.30
2023-04-04T13:13:00.205Z,17.40
2023-04-04T13:15:46.574Z,17.60
2023-04-04T13:18:15.346Z,17.30
2023-04-04T13:20:42.688Z,17.50
2023-04-04T13:23:10.166Z,17.50
2023-04-04T13:25:38.054Z,17.10
2023-04-04T13:28:06.392Z,17.70
2023-04-04T13:30:33.849Z,18.10
2023-04-04T13:33:01.195Z,17.80
2023-04-04T13:35:28.704Z,18.20
2023-04-04T13:37:55.992Z,18.10
2023-04-04T13:40:23.291Z,18.50
2023-04-04T13:42:50.695Z,18.60
2023-04-04T13:45:18.649Z,19.20
2023-04-04T13:47:46.172Z,19.20
2023-04-04T13:50:13.508Z,19.00
2023-04-04T13:52:40.912Z,19.10
2023-04-04T13:55:09.010Z,19.70
2023-04-04T13:57:36.552Z,19.20
2023-04-04T14:00:05.649Z,18.90
2023-04-04T14:02:33.135Z,19.10
2023-04-04T14:05:00.564Z,18.80
2023-04-04T14:07:27.906Z,19.10
2023-04-04T14:09:56.784Z,18.70
2023-04-04T14:12:24.081Z,18.70
2023-04-04T14:14:51.632Z,18.90
2023-04-04T14:17:18.937Z,18.50
2023-04-04T14:19:46.298Z,18.40
2023-04-04T14:22:13.918Z,18.10
2023-04-04T14:24:41.339Z,17.70
2023-04-04T14:27:08.623Z,17.30
2023-04-04T14:29:35.907Z,16.70
2023-04-04T14:32:03.823Z,16.00
2023-04-04T14:34:31.314Z,16.10
2023-04-04T14:36:59.192Z,16.10
2023-04-04T14:39:26.693Z,15.70
2023-04-04T14:41:53.813Z,15.50
2023-04-04T14:44:21.991Z,15.30
2023-04-04T14:46:51.852Z,15.10
2023-04-04T14:49:19.419Z,15.00
2023-04-04T14:51:46.694Z,15.00
2023-04-04T14:54:14.031Z,14.90
2023-04-04T14:56:42.862Z,14.80
2023-04-04T14:59:12.120Z,14.70
2023-04-04T15:01:40.125Z,14.80
2023-04-04T15:04:07.717Z,14.70
2023-04-04T15:06:37.962Z,14.70
2023-04-04T15:09:06.150Z,14.60
2023-04-04T15:11:35.337Z,14.60
2023-04-04T15:14:02.969Z,14.40
2023-04-04T15:16:33.105Z,14.30
2023-04-04T15:19:00.852Z,14.30
2023-04-04T15:21:28.875Z,14.20
2023-04-04T15:23:56.238Z,14.20
2023-04-04T15:26:24.717Z,14.10
2023-04-04T15:28:52.107Z,14.00
2023-04-04T15:31:20.874Z,14.00
2023-04-04T15:33:48.574Z,13.90
2023-04-04T15:36:16.070Z,13.70
2023-04-04T15:38:43.469Z,13.70
2023-04-04T15:41:10.899Z,13.80
2023-04-04T15:43:38.299Z,13.80
2023-04-04T15:46:05.911Z,13.80
2023-04-04T15:48:34.473Z,13.90
2023-04-04T15:51:04.808Z,13.80
2023-04-04T15:53:32.507Z,13.80
2023-04-04T15:55:59.963Z,13.80
2023-04-04T15:58:27.208Z,13.70
2023-04-04T16:00:55.948Z,13.60
2023-04-04T16:03:25.684Z,13.60
2023-04-04T16:05:53.262Z,13.50
2023-04-04T16:08:20.596Z,13.50
2023-04-04T16:10:47.884Z,13.50
2023-04-04T16:13:15.128Z,13.50
2023-04-04T16:15:42.510Z,13.40
2023-04-04T16:18:10.049Z,13.40
2023-04-04T16:20:37.562Z,13.40
2023-04-04T16:23:04.973Z,13.30
2023-04-04T16:25:32.253Z,13.30
2023-04-04T16:27:59.573Z,13.30
2023-04-04T16:30:28.441Z,13.20
2023-04-04T16:32:55.918Z,13.20
2023-04-04T16:35:23.319Z,13.30
2023-04-04T16:37:50.911Z,13.30
2023-04-04T16:40:18.383Z,13.30
2023-04-04T16:42:45.911Z,13.30
2023-04-04T16:45:13.304Z,13.20
2023-04-04T16:47:41.339Z,13.20
2023-04-04T16:50:08.862Z,13.20
2023-04-04T16:52:36.212Z,13.10
2023-04-04T16:55:03.778Z,13.10
2023-04-04T16:57:31.788Z,13.20
2023-04-04T16:59:59.975Z,13.20
2023-04-04T17:02:27.274Z,13.20
2023-04-04T17:04:54.520Z,13.10
2023-04-04T17:07:21.810Z,13.00
2023-04-04T17:09:51.477Z,13.00
2023-04-04T17:12:20.093Z,12.90
2023-04-04T17:14:47.423Z,12.80
2023-04-04T17:17:15.366Z,12.70
2023-04-04T17:19:42.843Z,12.60
2023-04-04T17:22:10.203Z,12.60
2023-04-04T17:24:37.524Z,12.60
2023-04-04T17:27:04.810Z,12.60
2023-04-04T17:29:32.565Z,12.50
2023-04-04T17:32:00.409Z,12.50
2023-04-04T17:34:27.834Z,12.50
2023-04-04T17:36:55.303Z,12.40
2023-04-04T17:39:22.704Z,12.30
2023-04-04T17:41:52.082Z,12.30
2023-04-04T17:48:23.645Z,12.20
2023-04-04T17:50:51.643Z,12.10
2023-04-04T17:53:19.061Z,12.10
2023-04-04T17:55:46.744Z,12.00
2023-04-04T17:58:15.306Z,12.00
2023-04-04T18:00:42.761Z,11.90
2023-04-04T18:03:11.829Z,11.80
2023-04-04T18:05:40.387Z,11.80
2023-04-04T18:08:07.995Z,11.70
2023-04-04T18:10:35.335Z,11.60
2023-04-04T18:13:02.910Z,11.50
2023-04-04T18:15:30.399Z,11.40
2023-04-04T18:17:57.822Z,11.30
2023-04-04T18:20:50.686Z,11.20
2023-04-04T18:23:18.253Z,11.10
2023-04-04T18:25:45.714Z,11.10
2023-04-04T18:28:13.807Z,11.00
2023-04-04T18:30:41.536Z,10.90
2023-04-04T18:33:09.154Z,10.80
2023-04-04T18:35:36.992Z,10.70
2023-04-04T18:38:05.392Z,10.60
2023-04-04T18:40:33.049Z,10.50
2023-04-04T18:43:01.441Z,10.50
2023-04-04T18:45:39.289Z,10.50
2023-04-04T18:48:08.867Z,10.40
2023-04-04T18:50:36.621Z,10.40
2023-04-04T18:53:03.986Z,10.30
2023-04-04T18:55:31.822Z,10.30
2023-04-04T18:57:59.134Z,10.30
2023-04-04T19:00:26.612Z,10.20
2023-04-04T19:02:54.355Z,10.10
2023-04-04T19:05:23.518Z,10.10
2023-04-04T19:07:54.006Z,9.90
2023-04-04T19:10:25.385Z,9.80
2023-04-04T19:12:53.255Z,9.80
2023-04-04T19:19:29.691Z,9.60
2023-04-04T19:21:57.713Z,9.50
2023-04-04T19:28:43.603Z,9.40
2023-04-04T19:31:14.655Z,9.40
2023-04-04T19:33:43.113Z,9.30
2023-04-04T19:36:11.777Z,9.30
2023-04-04T19:38:39.669Z,9.30
2023-04-04T19:41:27.820Z,9.20
2023-04-04T19:43:55.163Z,9.20
2023-04-04T19:46:29.154Z,9.10
2023-04-04T19:48:57.296Z,9.00
2023-04-04T19:55:39.007Z,8.90
2023-04-04T19:58:08.826Z,8.80
2023-04-04T20:00:37.128Z,8.70
2023-04-04T20:03:07.618Z,8.70
2023-04-04T20:05:35.287Z,8.70
2023-04-04T20:08:02.593Z,8.70
2023-04-04T20:10:36.974Z,8.60
2023-04-04T20:13:05.476Z,8.60
2023-04-04T20:15:44.921Z,8.60
2023-04-04T20:18:20.184Z,8.60
2023-04-04T20:20:50.403Z,8.60
2023-04-04T20:23:18.027Z,8.60
2023-04-04T20:25:45.514Z,8.50
2023-04-04T20:28:23.867Z,8.50
2023-04-04T20:30:51.182Z,8.50
2023-04-04T20:33:32.372Z,8.40
2023-04-04T20:36:18.598Z,8.40
2023-04-04T20:38:46.180Z,8.40
2023-04-04T20:41:22.190Z,8.40
2023-04-04T20:47:54.228Z,8.40
2023-04-04T20:50:24.361Z,8.40
2023-04-04T20:52:59.276Z,8.40
2023-04-04T20:55:28.669Z,8.40
2023-04-04T20:58:02.885Z,8.30
2023-04-04T21:00:31.391Z,8.30
2023-04-04T21:03:05.726Z,8.30
2023-04-04T21:05:34.835Z,8.30
2023-04-04T21:08:07.952Z,8.20
2023-04-04T21:10:45.994Z,8.20
2023-04-04T21:13:13.706Z,8.20
2023-04-04T21:15:41.426Z,8.20
2023-04-04T21:18:10.002Z,8.20
2023-04-04T21:20:46.614Z,8.20
2023-04-04T21:23:29.906Z,8.20
2023-04-04T21:25:59.907Z,8.20
2023-04-04T21:28:33.980Z,8.20
2023-04-04T21:31:02.583Z,8.20
2023-04-04T21:33:32.057Z,8.20
2023-04-04T21:36:00.018Z,8.20
2023-04-04T21:38:34.655Z,8.20
2023-04-04T21:41:07.266Z,8.30
2023-04-04T21:43:36.003Z,8.30
2023-04-04T21:46:03.933Z,8.40
2023-04-04T21:48:33.521Z,8.40
2023-04-04T21:51:01.687Z,8.40
2023-04-04T21:53:30.486Z,8.40
2023-04-04T21:55:58.053Z,8.40
2023-04-04T21:58:26.312Z,8.40
2023-04-04T22:00:54.732Z,8.30
2023-04-04T22:03:22.757Z,8.30
2023-04-04T22:05:50.088Z,8.30
2023-04-04T22:08:20.146Z,8.30
2023-04-04T22:10:47.666Z,8.20
2023-04-04T22:13:17.373Z,8.20
2023-04-04T22:15:50.942Z,8.30
2023-04-04T22:18:18.515Z,8.20
2023-04-04T22:20:47.563Z,8.20
2023-04-04T22:23:15.526Z,8.10
2023-04-04T22:25:42.903Z,8.10
2023-04-04T22:28:10.128Z,8.10
2023-04-04T22:30:39.246Z,8.10
2023-04-04T22:33:07.081Z,8.10
2023-04-04T22:35:34.797Z,8.10
2023-04-04T22:38:03.586Z,8.10
2023-04-04T22:40:31.659Z,8.00
2023-04-04T22:42:59.603Z,8.00
2023-04-04T22:45:27.405Z,8.00
2023-04-04T22:47:57.613Z,8.00
2023-04-04T22:50:25.015Z,8.00
2023-04-04T22:52:54.628Z,7.90
2023-04-04T22:55:23.686Z,7.90
2023-04-04T22:57:51.148Z,7.90
2023-04-04T23:00:18.993Z,7.90
2023-04-04T23:02:47.379Z,7.90
2023-04-04T23:05:16.100Z,7.90
2023-04-04T23:07:44.320Z,7.80
2023-04-04T23:10:13.623Z,7.80
2023-04-04T23:12:40.912Z,7.80
2023-04-04T23:15:08.436Z,7.70
2023-04-04T23:17:36.315Z,7.70
2023-04-04T23:20:10.152Z,7.70
2023-04-04T23:22:37.862Z,7.70
2023-04-04T23:25:06.849Z,7.70
2023-04-04T23:27:34.599Z,7.70
2023-04-04T23:30:04.748Z,7.70
2023-04-04T23:32:32.422Z,7.70
2023-04-04T23:34:59.813Z,7.70
2023-04-04T23:37:27.101Z,7.70
2023-04-04T23:39:54.513Z,7.70
2023-04-04T23:42:21.793Z,7.70
2023-04-04T23:44:49.072Z,7.70
2023-04-04T23:47:16.558Z,7.70
2023-04-04T23:49:43.917Z,7.80
2023-04-04T23:52:11.435Z,7.70
2023-04-04T23:54:38.710Z,7.70
2023-04-04T23:57:06.449Z,7.60
2023-04-04T23:59:33.803Z,7.60
